sensor_id;sensor_type;location;lat;lon;timestamp;pressure;altitude;pressure_sealevel;temperature;humidity
28000;BME280;15328;50.860;10.562;2023-04-28T00:02:17;96518.03;;;8.14;51.51
28000;BME280;15328;50.860;10.562;2023-04-28T00:07:17;96504.56;;;8.09;51.77
28000;BME280;15328;50.860;10.562;2023-04-28T00:12:18;96490.09;;;8.11;51.83
28000;BME280;15328;50.860;10.562;2023-04-28T00:17:18;96493.97;;;8.15;51.67
28000;BME280;15328;50.860;10.562;2023-04-28T00:22:18;96494.78;;;8.09;51.71
28000;BME280;15328;50.860;10.562;2023-04-28T00:27:19;96482.56;;;8.15;51.63
28000;BME280;15328;50.860;10.562;2023-04-28T00:32:19;96473.38;;;8.11;51.88
28000;BME280;15328;50.860;10.562;2023-04-28T00:37:20;96459.72;;;8.20;51.62
28000;BME280;15328;50.860;10.562;2023-04-28T00:42:20;96462.16;;;8.09;52.19
28000;BME280;15328;50.860;10.562;2023-04-28T00:47:21;96456.88;;;8.02;52.72
28000;BME280;15328;50.860;10.562;2023-04-28T00:52:21;96456.25;;;8.06;52.38
28000;BME280;15328;50.860;10.562;2023-04-28T00:57:21;96452.19;;;8.04;52.13
28000;BME280;15328;50.860;10.562;2023-04-28T01:02:22;96455.84;;;8.03;52.48
28000;BME280;15328;50.860;10.562;2023-04-28T01:07:22;96453.41;;;8.01;52.65
28000;BME280;15328;50.860;10.562;2023-04-28T01:12:23;96453.41;;;7.95;52.88
28000;BME280;15328;50.860;10.562;2023-04-28T01:17:23;96444.22;;;7.97;52.67
28000;BME280;15328;50.860;10.562;2023-04-28T01:22:24;96438.53;;;8.00;53.21
28000;BME280;15328;50.860;10.562;2023-04-28T01:27:24;96434.66;;;8.03;52.98
28000;BME280;15328;50.860;10.562;2023-04-28T01:32:25;96436.28;;;8.11;53.03
28000;BME280;15328;50.860;10.562;2023-04-28T01:37:25;96430.59;;;8.07;52.70
28000;BME280;15328;50.860;10.562;2023-04-28T01:42:26;96427.94;;;8.00;52.95
28000;BME280;15328;50.860;10.562;2023-04-28T01:47:26;96417.34;;;8.00;53.29
28000;BME280;15328;50.860;10.562;2023-04-28T01:52:26;96403.69;;;7.97;53.16
28000;BME280;15328;50.860;10.562;2023-04-28T01:57:27;96396.09;;;7.87;53.44
28000;BME280;15328;50.860;10.562;2023-04-28T02:02:28;96389.38;;;7.85;53.70
28000;BME280;15328;50.860;10.562;2023-04-28T02:07:28;96395.69;;;7.90;53.49
28000;BME280;15328;50.860;10.562;2023-04-28T02:12:28;96380.66;;;8.04;53.11
28000;BME280;15328;50.860;10.562;2023-04-28T02:17:29;96385.94;;;7.97;53.31
28000;BME280;15328;50.860;10.562;2023-04-28T02:22:30;96383.50;;;7.96;53.48
28000;BME280;15328;50.860;10.562;2023-04-28T02:27:30;96385.94;;;7.97;53.79
28000;BME280;15328;50.860;10.562;2023-04-28T02:32:31;96377.81;;;7.99;53.59
28000;BME280;15328;50.860;10.562;2023-04-28T02:37:32;96378.22;;;7.96;53.66
28000;BME280;15328;50.860;10.562;2023-04-28T02:42:32;96377.56;;;7.94;53.95
28000;BME280;15328;50.860;10.562;2023-04-28T02:47:32;96369.44;;;7.95;54.58
28000;BME280;15328;50.860;10.562;2023-04-28T02:52:33;96353.97;;;7.99;54.13
28000;BME280;15328;50.860;10.562;2023-04-28T02:57:33;96348.06;;;7.97;54.27
28000;BME280;15328;50.860;10.562;2023-04-28T03:02:33;96345.19;;;7.92;54.94
28000;BME280;15328;50.860;10.562;2023-04-28T03:07:33;96346.19;;;7.91;54.63
28000;BME280;15328;50.860;10.562;2023-04-28T03:12:34;96330.31;;;7.91;54.67
28000;BME280;15328;50.860;10.562;2023-04-28T03:17:34;96322.78;;;7.94;55.11
28000;BME280;15328;50.860;10.562;2023-04-28T03:22:37;96321.34;;;7.92;55.28
28000;BME280;15328;50.860;10.562;2023-04-28T03:27:38;96308.69;;;7.94;55.26
28000;BME280;15328;50.860;10.562;2023-04-28T03:32:38;96298.75;;;7.96;55.33
28000;BME280;15328;50.860;10.562;2023-04-28T03:37:38;96290.38;;;7.92;55.57
28000;BME280;15328;50.860;10.562;2023-04-28T03:42:39;96289.97;;;7.89;55.57
28000;BME280;15328;50.860;10.562;2023-04-28T03:47:40;96294.03;;;7.91;55.52
28000;BME280;15328;50.860;10.562;2023-04-28T03:52:40;96287.53;;;8.00;55.26
28000;BME280;15328;50.860;10.562;2023-04-28T03:57:40;96293.03;;;8.05;55.87
28000;BME280;15328;50.860;10.562;2023-04-28T04:02:41;96293.81;;;8.13;55.50
28000;BME280;15328;50.860;10.562;2023-04-28T04:07:41;96278.31;;;8.16;55.67
28000;BME280;15328;50.860;10.562;2023-04-28T04:12:42;96277.94;;;8.13;55.77
28000;BME280;15328;50.860;10.562;2023-04-28T04:17:42;96270.59;;;8.15;55.49
28000;BME280;15328;50.860;10.562;2023-04-28T04:22:43;96261.44;;;8.11;56.35
28000;BME280;15328;50.860;10.562;2023-04-28T04:27:43;96254.31;;;8.04;57.40
28000;BME280;15328;50.860;10.562;2023-04-28T04:32:43;96254.91;;;8.06;58.06
28000;BME280;15328;50.860;10.562;2023-04-28T04:37:44;96253.84;;;8.21;57.54
28000;BME280;15328;50.860;10.562;2023-04-28T04:42:44;96269.38;;;8.24;57.66
28000;BME280;15328;50.860;10.562;2023-04-28T04:47:44;96267.53;;;8.24;57.78
28000;BME280;15328;50.860;10.562;2023-04-28T04:52:45;96271.78;;;8.32;56.68
28000;BME280;15328;50.860;10.562;2023-04-28T04:57:45;96266.09;;;8.35;56.89
28000;BME280;15328;50.860;10.562;2023-04-28T05:02:46;96254.25;;;8.31;57.56
28000;BME280;15328;50.860;10.562;2023-04-28T05:07:46;96249.56;;;8.33;57.49
28000;BME280;15328;50.860;10.562;2023-04-28T05:12:46;96257.13;;;8.36;57.64
28000;BME280;15328;50.860;10.562;2023-04-28T05:17:47;96263.59;;;8.47;57.35
28000;BME280;15328;50.860;10.562;2023-04-28T05:22:47;96264.03;;;8.44;58.70
28000;BME280;15328;50.860;10.562;2023-04-28T05:27:47;96265.25;;;8.48;58.33
28000;BME280;15328;50.860;10.562;2023-04-28T05:32:48;96264.44;;;8.47;58.56
28000;BME280;15328;50.860;10.562;2023-04-28T05:37:48;96259.34;;;8.46;58.53
28000;BME280;15328;50.860;10.562;2023-04-28T05:42:48;96255.06;;;8.31;59.61
28000;BME280;15328;50.860;10.562;2023-04-28T05:47:49;96249.19;;;8.36;60.97
28000;BME280;15328;50.860;10.562;2023-04-28T05:52:49;96255.91;;;8.39;61.05
28000;BME280;15328;50.860;10.562;2023-04-28T05:57:50;96249.16;;;8.43;61.17
28000;BME280;15328;50.860;10.562;2023-04-28T06:02:50;96252.78;;;8.48;61.02
28000;BME280;15328;50.860;10.562;2023-04-28T06:07:50;96250.56;;;8.52;62.21
28000;BME280;15328;50.860;10.562;2023-04-28T06:12:51;96244.59;;;8.63;61.75
28000;BME280;15328;50.860;10.562;2023-04-28T06:17:51;96249.31;;;8.61;62.48
28000;BME280;15328;50.860;10.562;2023-04-28T06:22:52;96240.53;;;8.60;62.65
28000;BME280;15328;50.860;10.562;2023-04-28T06:27:52;96234.22;;;8.61;62.72
28000;BME280;15328;50.860;10.562;2023-04-28T06:32:52;96228.47;;;8.64;63.19
28000;BME280;15328;50.860;10.562;2023-04-28T06:37:53;96243.53;;;8.77;63.24
28000;BME280;15328;50.860;10.562;2023-04-28T06:42:53;96234.91;;;8.88;63.32
28000;BME280;15328;50.860;10.562;2023-04-28T06:47:53;96236.09;;;8.92;63.50
28000;BME280;15328;50.860;10.562;2023-04-28T06:52:56;96232.22;;;8.95;63.68
28000;BME280;15328;50.860;10.562;2023-04-28T06:57:58;96219.31;;;9.05;63.52
28000;BME280;15328;50.860;10.562;2023-04-28T07:02:58;96216.25;;;9.08;63.60
28000;BME280;15328;50.860;10.562;2023-04-28T07:07:58;96218.19;;;9.19;63.99
28000;BME280;15328;50.860;10.562;2023-04-28T07:12:59;96210.31;;;9.38;64.74
28000;BME280;15328;50.860;10.562;2023-04-28T07:17:59;96202.09;;;9.71;64.78
28000;BME280;15328;50.860;10.562;2023-04-28T07:22:59;96203.69;;;9.97;65.50
28000;BME280;15328;50.860;10.562;2023-04-28T07:28:02;96210.50;;;10.11;67.89
28000;BME280;15328;50.860;10.562;2023-04-28T07:33:02;96228.13;;;10.30;67.72
28000;BME280;15328;50.860;10.562;2023-04-28T07:38:03;96219.44;;;10.41;68.73
28000;BME280;15328;50.860;10.562;2023-04-28T07:43:03;96224.38;;;10.56;68.32
28000;BME280;15328;50.860;10.562;2023-04-28T07:48:04;96213.13;;;10.72;67.92
28000;BME280;15328;50.860;10.562;2023-04-28T07:53:04;96215.47;;;10.80;67.94
28000;BME280;15328;50.860;10.562;2023-04-28T07:58:05;96233.78;;;10.89;66.85
28000;BME280;15328;50.860;10.562;2023-04-28T08:03:05;96224.31;;;10.93;66.06
28000;BME280;15328;50.860;10.562;2023-04-28T08:08:05;96198.66;;;10.98;66.05
28000;BME280;15328;50.860;10.562;2023-04-28T08:13:06;96200.06;;;11.01;65.79
28000;BME280;15328;50.860;10.562;2023-04-28T08:18:06;96201.94;;;11.12;65.60
28000;BME280;15328;50.860;10.562;2023-04-28T08:23:08;96196.75;;;11.17;66.45
28000;BME280;15328;50.860;10.562;2023-04-28T08:28:08;96199.19;;;11.19;66.96
28000;BME280;15328;50.860;10.562;2023-04-28T08:33:09;96201.91;;;11.30;67.08
28000;BME280;15328;50.860;10.562;2023-04-28T08:38:09;96199.34;;;11.35;66.83
28000;BME280;15328;50.860;10.562;2023-04-28T08:43:13;96202.94;;;11.41;66.92
28000;BME280;15328;50.860;10.562;2023-04-28T08:48:21;96192.91;;;11.55;66.49
28000;BME280;15328;50.860;10.562;2023-04-28T08:53:25;96183.88;;;11.56;66.01
28000;BME280;15328;50.860;10.562;2023-04-28T08:58:26;96187.13;;;11.69;66.08
28000;BME280;15328;50.860;10.562;2023-04-28T09:03:27;96188.53;;;11.60;66.68
28000;BME280;15328;50.860;10.562;2023-04-28T09:08:28;96180.28;;;11.73;66.60
28000;BME280;15328;50.860;10.562;2023-04-28T09:13:28;96177.63;;;11.73;66.42
28000;BME280;15328;50.860;10.562;2023-04-28T09:18:32;96174.72;;;11.75;66.25
28000;BME280;15328;50.860;10.562;2023-04-28T09:23:33;96178.56;;;11.67;65.65
28000;BME280;15328;50.860;10.562;2023-04-28T09:28:34;96174.09;;;11.80;65.61
28000;BME280;15328;50.860;10.562;2023-04-28T09:33:35;96181.00;;;11.69;64.67
28000;BME280;15328;50.860;10.562;2023-04-28T09:38:42;96170.69;;;11.72;65.04
28000;BME280;15328;50.860;10.562;2023-04-28T09:43:42;96165.59;;;11.71;64.77
28000;BME280;15328;50.860;10.562;2023-04-28T09:48:43;96163.84;;;11.76;64.75
28000;BME280;15328;50.860;10.562;2023-04-28T09:53:43;96162.63;;;11.79;64.98
28000;BME280;15328;50.860;10.562;2023-04-28T09:58:44;96163.78;;;11.83;65.22
28000;BME280;15328;50.860;10.562;2023-04-28T10:03:46;96152.88;;;11.96;64.60
28000;BME280;15328;50.860;10.562;2023-04-28T10:08:50;96149.03;;;12.04;64.27
28000;BME280;15328;50.860;10.562;2023-04-28T10:13:52;96141.03;;;12.16;64.75
28000;BME280;15328;50.860;10.562;2023-04-28T10:18:54;96141.81;;;12.40;65.16
28000;BME280;15328;50.860;10.562;2023-04-28T10:24:28;96143.44;;;12.69;64.82
28000;BME280;15328;50.860;10.562;2023-04-28T10:29:31;96120.94;;;12.93;64.22
28000;BME280;15328;50.860;10.562;2023-04-28T10:34:32;96138.19;;;13.03;63.74
28000;BME280;15328;50.860;10.562;2023-04-28T10:39:32;96134.88;;;12.95;62.13
28000;BME280;15328;50.860;10.562;2023-04-28T10:55:33;96113.34;;;13.02;62.37
28000;BME280;15328;50.860;10.562;2023-04-28T11:00:39;96105.41;;;13.19;62.49
28000;BME280;15328;50.860;10.562;2023-04-28T11:11:29;96117.38;;;13.50;61.93
28000;BME280;15328;50.860;10.562;2023-04-28T11:16:32;96108.19;;;13.79;61.76
28000;BME280;15328;50.860;10.562;2023-04-28T11:21:37;96094.84;;;13.79;60.50
28000;BME280;15328;50.860;10.562;2023-04-28T11:26:41;96081.59;;;13.51;60.31
28000;BME280;15328;50.860;10.562;2023-04-28T11:32:01;96076.41;;;13.27;60.96
28000;BME280;15328;50.860;10.562;2023-04-28T11:37:03;96060.63;;;13.26;61.62
28000;BME280;15328;50.860;10.562;2023-04-28T11:42:10;96072.59;;;13.40;61.12
28000;BME280;15328;50.860;10.562;2023-04-28T11:47:13;96073.34;;;14.13;61.73
28000;BME280;15328;50.860;10.562;2023-04-28T11:52:22;96084.13;;;14.89;58.08
28000;BME280;15328;50.860;10.562;2023-04-28T11:57:22;96079.31;;;15.18;57.43
28000;BME280;15328;50.860;10.562;2023-04-28T12:02:24;96082.06;;;15.28;56.80
28000;BME280;15328;50.860;10.562;2023-04-28T12:07:27;96089.84;;;15.29;56.23
28000;BME280;15328;50.860;10.562;2023-04-28T12:12:28;96082.88;;;15.28;56.32
28000;BME280;15328;50.860;10.562;2023-04-28T12:17:47;96090.41;;;15.31;56.44
28000;BME280;15328;50.860;10.562;2023-04-28T12:22:49;96080.78;;;15.03;56.14
28000;BME280;15328;50.860;10.562;2023-04-28T12:28:05;96075.63;;;14.97;57.02
28000;BME280;15328;50.860;10.562;2023-04-28T12:33:26;96075.34;;;15.25;57.10
28000;BME280;15328;50.860;10.562;2023-04-28T12:38:28;96082.31;;;15.26;56.81
28000;BME280;15328;50.860;10.562;2023-04-28T12:43:29;96074.03;;;15.60;56.29
28000;BME280;15328;50.860;10.562;2023-04-28T12:48:29;96063.44;;;15.80;55.83
28000;BME280;15328;50.860;10.562;2023-04-28T12:53:30;96076.72;;;16.07;55.05
28000;BME280;15328;50.860;10.562;2023-04-28T12:58:31;96075.22;;;16.26;54.83
28000;BME280;15328;50.860;10.562;2023-04-28T13:03:31;96072.66;;;16.57;54.44
28000;BME280;15328;50.860;10.562;2023-04-28T13:08:32;96062.47;;;16.64;52.02
28000;BME280;15328;50.860;10.562;2023-04-28T13:13:33;96058.97;;;16.58;52.05
28000;BME280;15328;50.860;10.562;2023-04-28T13:18:33;96056.59;;;16.67;52.82
28000;BME280;15328;50.860;10.562;2023-04-28T13:23:33;96060.34;;;16.66;52.54
28000;BME280;15328;50.860;10.562;2023-04-28T13:28:34;96052.75;;;16.48;52.39
28000;BME280;15328;50.860;10.562;2023-04-28T13:33:35;96041.38;;;16.20;52.13
28000;BME280;15328;50.860;10.562;2023-04-28T13:38:35;96039.09;;;16.59;53.34
28000;BME280;15328;50.860;10.562;2023-04-28T13:43:36;96037.03;;;16.92;52.86
28000;BME280;15328;50.860;10.562;2023-04-28T13:48:37;96028.97;;;16.77;52.36
28000;BME280;15328;50.860;10.562;2023-04-28T13:53:38;96027.53;;;16.59;52.68
28000;BME280;15328;50.860;10.562;2023-04-28T13:58:38;96018.00;;;15.58;54.52
28000;BME280;15328;50.860;10.562;2023-04-28T14:03:39;96011.09;;;15.30;55.63
28000;BME280;15328;50.860;10.562;2023-04-28T14:08:40;96010.53;;;14.64;58.95
28000;BME280;15328;50.860;10.562;2023-04-28T14:13:40;96016.88;;;15.17;58.07
28000;BME280;15328;50.860;10.562;2023-04-28T14:18:41;96015.38;;;15.31;57.00
28000;BME280;15328;50.860;10.562;2023-04-28T14:23:41;96018.88;;;15.00;57.82
28000;BME280;15328;50.860;10.562;2023-04-28T14:28:42;95998.56;;;14.45;59.51
28000;BME280;15328;50.860;10.562;2023-04-28T14:33:42;96010.81;;;14.63;60.03
28000;BME280;15328;50.860;10.562;2023-04-28T14:38:43;96012.94;;;14.39;60.55
28000;BME280;15328;50.860;10.562;2023-04-28T14:43:43;95992.50;;;14.28;61.29
28000;BME280;15328;50.860;10.562;2023-04-28T14:48:44;95991.53;;;14.39;61.00
28000;BME280;15328;50.860;10.562;2023-04-28T14:53:44;96005.19;;;14.64;61.04
28000;BME280;15328;50.860;10.562;2023-04-28T14:58:46;96001.94;;;14.89;59.98
28000;BME280;15328;50.860;10.562;2023-04-28T15:03:46;96007.09;;;15.01;59.47
28000;BME280;15328;50.860;10.562;2023-04-28T15:08:46;95982.50;;;15.04;58.54
28000;BME280;15328;50.860;10.562;2023-04-28T15:13:48;95985.69;;;14.69;59.67
28000;BME280;15328;50.860;10.562;2023-04-28T15:18:48;95976.47;;;14.33;61.45
28000;BME280;15328;50.860;10.562;2023-04-28T15:23:49;95994.84;;;14.46;61.33
28000;BME280;15328;50.860;10.562;2023-04-28T15:28:49;95974.97;;;14.42;61.77
28000;BME280;15328;50.860;10.562;2023-04-28T15:33:50;95988.28;;;14.37;61.92
28000;BME280;15328;50.860;10.562;2023-04-28T15:38:50;95986.97;;;14.39;62.57
28000;BME280;15328;50.860;10.562;2023-04-28T15:43:51;95987.56;;;14.19;63.12
28000;BME280;15328;50.860;10.562;2023-04-28T15:48:52;95985.03;;;14.08;63.38
28000;BME280;15328;50.860;10.562;2023-04-28T15:53:54;95999.84;;;13.72;64.69
28000;BME280;15328;50.860;10.562;2023-04-28T15:58:54;95993.63;;;13.27;67.34
28000;BME280;15328;50.860;10.562;2023-04-28T16:03:55;96006.63;;;13.07;68.45
28000;BME280;15328;50.860;10.562;2023-04-28T16:08:55;96010.38;;;12.89;69.58
28000;BME280;15328;50.860;10.562;2023-04-28T16:13:56;96007.69;;;12.89;69.58
28000;BME280;15328;50.860;10.562;2023-04-28T16:18:56;96008.72;;;13.05;70.36
28000;BME280;15328;50.860;10.562;2023-04-28T16:23:58;96010.28;;;13.35;68.38
28000;BME280;15328;50.860;10.562;2023-04-28T16:28:58;96004.19;;;13.06;69.64
28000;BME280;15328;50.860;10.562;2023-04-28T16:33:59;96008.81;;;13.10;69.92
28000;BME280;15328;50.860;10.562;2023-04-28T16:38:59;96016.28;;;13.25;68.98
28000;BME280;15328;50.860;10.562;2023-04-28T16:43:59;96004.22;;;13.22;68.76
28000;BME280;15328;50.860;10.562;2023-04-28T16:49:00;96017.91;;;13.43;68.21
28000;BME280;15328;50.860;10.562;2023-04-28T16:54:01;96012.28;;;13.11;68.46
28000;BME280;15328;50.860;10.562;2023-04-28T16:59:01;96017.47;;;13.00;69.74
28000;BME280;15328;50.860;10.562;2023-04-28T17:04:01;96016.31;;;12.80;70.88
28000;BME280;15328;50.860;10.562;2023-04-28T17:09:05;96003.63;;;12.87;71.46
28000;BME280;15328;50.860;10.562;2023-04-28T17:14:06;95986.56;;;13.05;70.49
28000;BME280;15328;50.860;10.562;2023-04-28T17:19:06;95983.19;;;12.92;71.37
28000;BME280;15328;50.860;10.562;2023-04-28T17:24:06;95984.53;;;13.12;70.16
28000;BME280;15328;50.860;10.562;2023-04-28T17:29:07;95968.53;;;12.78;72.30
28000;BME280;15328;50.860;10.562;2023-04-28T17:34:08;95965.88;;;12.95;70.51
28000;BME280;15328;50.860;10.562;2023-04-28T17:39:08;95960.59;;;13.00;70.74
28000;BME280;15328;50.860;10.562;2023-04-28T17:44:08;95960.03;;;12.98;70.43
28000;BME280;15328;50.860;10.562;2023-04-28T17:49:09;95965.31;;;12.93;70.66
28000;BME280;15328;50.860;10.562;2023-04-28T17:54:10;95968.53;;;12.78;71.95
28000;BME280;15328;50.860;10.562;2023-04-28T17:59:10;95987.38;;;12.72;72.61
28000;BME280;15328;50.860;10.562;2023-04-28T18:04:12;95967.72;;;12.61;73.03
28000;BME280;15328;50.860;10.562;2023-04-28T18:09:12;95958.75;;;12.67;72.34
28000;BME280;15328;50.860;10.562;2023-04-28T18:14:13;95964.50;;;12.76;71.99
28000;BME280;15328;50.860;10.562;2023-04-28T18:19:17;95966.34;;;12.75;72.71
28000;BME280;15328;50.860;10.562;2023-04-28T18:24:17;95962.56;;;12.71;72.25
28000;BME280;15328;50.860;10.562;2023-04-28T18:29:17;95981.06;;;12.61;72.65
28000;BME280;15328;50.860;10.562;2023-04-28T18:34:19;95983.34;;;12.69;72.27
28000;BME280;15328;50.860;10.562;2023-04-28T18:39:19;96003.00;;;12.34;74.74
28000;BME280;15328;50.860;10.562;2023-04-28T18:44:20;96005.88;;;12.04;76.90
28000;BME280;15328;50.860;10.562;2023-04-28T18:49:20;96011.13;;;11.99;77.78
28000;BME280;15328;50.860;10.562;2023-04-28T18:54:21;96007.28;;;12.07;77.75
28000;BME280;15328;50.860;10.562;2023-04-28T18:59:22;96000.91;;;12.08;78.62
28000;BME280;15328;50.860;10.562;2023-04-28T19:04:23;95981.69;;;12.34;76.38
28000;BME280;15328;50.860;10.562;2023-04-28T19:09:24;95982.13;;;12.31;76.21
28000;BME280;15328;50.860;10.562;2023-04-28T19:14:24;95984.78;;;12.31;77.28
28000;BME280;15328;50.860;10.562;2023-04-28T19:19:25;95984.75;;;12.15;78.50
28000;BME280;15328;50.860;10.562;2023-04-28T19:24:25;95987.56;;;12.36;77.19
28000;BME280;15328;50.860;10.562;2023-04-28T19:29:28;95988.63;;;12.35;77.56
28000;BME280;15328;50.860;10.562;2023-04-28T19:34:28;96004.19;;;12.27;78.64
28000;BME280;15328;50.860;10.562;2023-04-28T19:39:32;96018.53;;;12.09;79.23
28000;BME280;15328;50.860;10.562;2023-04-28T19:44:32;96057.41;;;12.33;79.50
28000;BME280;15328;50.860;10.562;2023-04-28T19:49:33;96020.31;;;12.49;78.47
28000;BME280;15328;50.860;10.562;2023-04-28T19:54:34;96021.09;;;12.61;77.57
28000;BME280;15328;50.860;10.562;2023-04-28T19:59:34;95988.72;;;12.41;79.46
28000;BME280;15328;50.860;10.562;2023-04-28T20:04:35;96004.06;;;12.33;80.57
28000;BME280;15328;50.860;10.562;2023-04-28T20:09:36;96013.63;;;12.18;80.66
28000;BME280;15328;50.860;10.562;2023-04-28T20:14:37;96017.47;;;12.10;81.43
28000;BME280;15328;50.860;10.562;2023-04-28T20:19:37;96013.28;;;12.14;81.25
28000;BME280;15328;50.860;10.562;2023-04-28T20:24:38;96005.28;;;12.14;80.94
28000;BME280;15328;50.860;10.562;2023-04-28T20:29:39;96000.34;;;12.06;81.85
28000;BME280;15328;50.860;10.562;2023-04-28T20:34:40;96007.06;;;11.97;83.42
28000;BME280;15328;50.860;10.562;2023-04-28T20:39:41;96002.78;;;11.96;83.24
28000;BME280;15328;50.860;10.562;2023-04-28T20:44:41;96008.63;;;12.21;81.99
28000;BME280;15328;50.860;10.562;2023-04-28T20:49:42;96019.44;;;12.03;83.20
28000;BME280;15328;50.860;10.562;2023-04-28T20:54:43;96002.56;;;12.26;82.28
28000;BME280;15328;50.860;10.562;2023-04-28T20:59:44;95991.47;;;12.46;81.13
28000;BME280;15328;50.860;10.562;2023-04-28T21:04:45;96008.38;;;12.51;80.96
28000;BME280;15328;50.860;10.562;2023-04-28T21:09:46;95995.78;;;12.63;79.94
28000;BME280;15328;50.860;10.562;2023-04-28T21:14:46;96004.31;;;12.49;81.10
28000;BME280;15328;50.860;10.562;2023-04-28T21:19:46;96025.25;;;12.57;80.32
28000;BME280;15328;50.860;10.562;2023-04-28T21:24:47;96015.50;;;12.62;80.18
28000;BME280;15328;50.860;10.562;2023-04-28T21:29:47;96032.69;;;12.55;80.70
28000;BME280;15328;50.860;10.562;2023-04-28T21:34:47;96030.41;;;12.75;78.95
28000;BME280;15328;50.860;10.562;2023-04-28T21:39:48;96026.75;;;12.81;79.67
28000;BME280;15328;50.860;10.562;2023-04-28T21:44:49;96017.47;;;13.00;78.45
28000;BME280;15328;50.860;10.562;2023-04-28T21:49:49;96023.22;;;13.09;77.76
28000;BME280;15328;50.860;10.562;2023-04-28T21:54:50;96030.41;;;13.09;78.14
28000;BME280;15328;50.860;10.562;2023-04-28T21:59:50;96018.31;;;13.18;77.66
28000;BME280;15328;50.860;10.562;2023-04-28T22:04:51;96022.94;;;13.22;77.15
28000;BME280;15328;50.860;10.562;2023-04-28T22:09:51;96026.47;;;13.28;75.70
28000;BME280;15328;50.860;10.562;2023-04-28T22:14:52;96021.53;;;13.37;74.72
28000;BME280;15328;50.860;10.562;2023-04-28T22:19:52;96018.84;;;13.37;73.56
28000;BME280;15328;50.860;10.562;2023-04-28T22:24:52;96013.25;;;13.38;73.15
28000;BME280;15328;50.860;10.562;2023-04-28T22:29:53;96013.81;;;13.40;72.65
28000;BME280;15328;50.860;10.562;2023-04-28T22:34:53;96021.28;;;13.38;71.61
28000;BME280;15328;50.860;10.562;2023-04-28T22:39:54;96018.84;;;13.37;71.62
28000;BME280;15328;50.860;10.562;2023-04-28T22:44:54;96031.72;;;13.40;71.58
28000;BME280;15328;50.860;10.562;2023-04-28T22:49:55;96030.34;;;13.37;71.21
28000;BME280;15328;50.860;10.562;2023-04-28T22:54:58;96027.69;;;13.37;71.29
28000;BME280;15328;50.860;10.562;2023-04-28T22:59:58;96021.78;;;13.35;70.51
28000;BME280;15328;50.860;10.562;2023-04-28T23:04:59;96034.13;;;13.41;70.84
28000;BME280;15328;50.860;10.562;2023-04-28T23:09:59;96033.13;;;13.42;70.87
28000;BME280;15328;50.860;10.562;2023-04-28T23:15:00;96026.13;;;13.41;70.16
28000;BME280;15328;50.860;10.562;2023-04-28T23:20:00;96022.91;;;13.39;70.09
28000;BME280;15328;50.860;10.562;2023-04-28T23:25:00;96028.00;;;13.41;70.48
28000;BME280;15328;50.860;10.562;2023-04-28T23:30:01;96037.63;;;13.42;70.61
28000;BME280;15328;50.860;10.562;2023-04-28T23:35:01;96030.91;;;13.39;70.70
28000;BME280;15328;50.860;10.562;2023-04-28T23:40:02;96026.38;;;13.40;70.34
28000;BME280;15328;50.860;10.562;2023-04-28T23:45:03;96013.81;;;13.40;70.04
28000;BME280;15328;50.860;10.562;2023-04-28T23:50:05;96020.22;;;13.39;69.30
28000;BME280;15328;50.860;10.562;2023-04-28T23:55:06;96017.59;;;13.22;69.46
